createdAt,value
2022-12-11T00:02:05.908Z,-0.71
2022-12-11T00:04:32.530Z,-0.69
2022-12-11T00:06:59.082Z,-0.73
2022-12-11T00:09:25.736Z,-0.71
2022-12-11T00:11:52.186Z,-0.74
2022-12-11T00:14:18.571Z,-0.69
2022-12-11T00:16:45.170Z,-0.69
2022-12-11T00:19:11.600Z,-0.72
2022-12-11T00:21:38.097Z,-0.71
2022-12-11T00:24:04.956Z,-0.66
2022-12-11T00:26:31.811Z,-0.69
2022-12-11T00:28:58.221Z,-0.70
2022-12-11T00:31:24.986Z,-0.74
2022-12-11T00:33:51.468Z,-0.70
2022-12-11T00:36:21.967Z,-0.75
2022-12-11T00:38:48.901Z,-0.70
2022-12-11T00:41:15.640Z,-0.75
2022-12-11T00:43:42.100Z,-0.75
2022-12-11T00:46:08.594Z,-0.79
2022-12-11T00:48:35.083Z,-0.72
2022-12-11T00:51:01.513Z,-0.71
2022-12-11T00:53:27.948Z,-0.69
2022-12-11T00:55:54.398Z,-0.82
2022-12-11T00:58:22.218Z,-0.80
2022-12-11T01:00:50.564Z,-0.80
2022-12-11T01:03:17.201Z,-0.81
2022-12-11T01:05:51.024Z,-0.84
2022-12-11T01:08:17.487Z,-0.79
2022-12-11T01:10:45.966Z,-0.86
2022-12-11T01:13:12.820Z,-0.75
2022-12-11T01:15:41.638Z,-0.82
2022-12-11T01:18:08.624Z,-0.82
2022-12-11T01:20:35.258Z,-0.87
2022-12-11T01:23:06.801Z,-0.90
2022-12-11T01:25:33.592Z,-0.97
2022-12-11T01:28:00.158Z,-0.98
2022-12-11T01:30:26.774Z,-1.00
2022-12-11T01:32:53.290Z,-0.97
2022-12-11T01:35:19.743Z,-1.01
2022-12-11T01:37:47.020Z,-0.93
2022-12-11T01:40:14.097Z,-0.93
2022-12-11T01:42:40.480Z,-0.91
2022-12-11T01:45:12.960Z,-0.91
2022-12-11T01:47:39.511Z,-0.87
2022-12-11T01:50:06.207Z,-0.85
2022-12-11T01:52:32.845Z,-0.78
2022-12-11T01:54:59.262Z,-0.83
2022-12-11T01:57:25.660Z,-2.13
2022-12-11T01:59:52.093Z,-0.86
2022-12-11T02:02:19.679Z,-0.92
2022-12-11T02:04:46.145Z,-0.84
2022-12-11T02:07:12.668Z,-0.91
2022-12-11T02:09:39.525Z,-0.99
2022-12-11T02:12:09.160Z,-0.99
2022-12-11T02:14:44.752Z,-0.94
2022-12-11T02:17:30.183Z,-0.94
2022-12-11T02:20:03.877Z,-0.95
2022-12-11T02:22:45.491Z,-0.85
2022-12-11T02:25:22.747Z,-0.83
2022-12-11T02:27:56.809Z,-0.92
2022-12-11T02:30:23.719Z,-0.99
2022-12-11T02:32:56.744Z,-0.96
2022-12-11T02:35:33.541Z,-1.02
2022-12-11T02:38:01.952Z,-1.05
2022-12-11T02:40:29.313Z,-1.05
2022-12-11T02:42:56.281Z,-1.06
2022-12-11T02:45:22.971Z,-1.01
2022-12-11T02:47:49.410Z,-1.01
2022-12-11T02:50:16.956Z,-1.03
2022-12-11T02:52:43.450Z,-1.01
2022-12-11T02:55:10.379Z,-1.03
2022-12-11T02:57:45.023Z,-0.99
2022-12-11T03:00:11.750Z,-1.07
2022-12-11T03:02:38.914Z,-1.08
2022-12-11T03:05:05.595Z,-1.05
2022-12-11T03:07:33.039Z,-1.03
2022-12-11T03:09:59.570Z,-1.05
2022-12-11T03:12:29.814Z,-1.01
2022-12-11T03:14:56.548Z,-0.98
2022-12-11T03:17:23.594Z,-0.96
2022-12-11T03:19:49.967Z,-0.97
2022-12-11T03:22:24.322Z,-0.96
2022-12-11T03:24:51.600Z,-0.93
2022-12-11T03:27:24.215Z,-0.97
2022-12-11T03:29:55.409Z,-1.01
2022-12-11T03:32:23.232Z,-1.02
2022-12-11T03:35:02.042Z,-1.01
2022-12-11T03:37:28.946Z,-1.07
2022-12-11T03:39:56.859Z,-1.00
2022-12-11T03:42:23.316Z,-1.07
2022-12-11T03:44:49.846Z,-1.08
2022-12-11T03:47:17.757Z,-1.09
2022-12-11T03:49:44.676Z,-1.10
2022-12-11T03:52:11.420Z,-1.13
2022-12-11T03:54:58.311Z,-1.12
2022-12-11T03:57:25.998Z,-1.14
2022-12-11T03:59:52.412Z,-1.14
2022-12-11T04:02:18.843Z,-1.11
2022-12-11T04:04:45.315Z,-1.16
2022-12-11T04:07:11.703Z,-1.14
2022-12-11T04:09:38.141Z,-1.08
2022-12-11T04:12:04.589Z,-1.07
2022-12-11T04:14:49.796Z,-1.12
2022-12-11T04:17:36.184Z,-1.15
2022-12-11T04:20:21.353Z,-1.14
2022-12-11T04:23:06.470Z,-1.11
2022-12-11T04:25:52.139Z,-1.16
2022-12-11T04:28:18.578Z,-1.15
2022-12-11T04:30:48.796Z,-1.11
2022-12-11T04:33:15.419Z,-1.10
2022-12-11T04:35:41.824Z,-1.13
2022-12-11T04:38:08.241Z,-1.01
2022-12-11T04:40:34.868Z,-1.04
2022-12-11T04:43:01.351Z,-1.07
2022-12-11T04:45:27.802Z,-2.82
2022-12-11T04:47:54.505Z,-0.97
2022-12-11T04:50:20.936Z,-1.09
2022-12-11T04:52:47.576Z,-1.10
2022-12-11T04:55:14.396Z,-1.15
2022-12-11T04:57:41.078Z,-1.18
2022-12-11T05:00:08.297Z,-1.16
2022-12-11T05:02:36.064Z,-1.16
2022-12-11T05:05:03.546Z,-1.22
2022-12-11T05:07:30.016Z,-1.24
2022-12-11T05:09:56.431Z,-1.26
2022-12-11T05:12:22.832Z,-1.27
2022-12-11T05:14:51.806Z,-1.26
2022-12-11T05:17:18.278Z,-1.24
2022-12-11T05:19:45.168Z,-1.22
2022-12-11T05:22:11.569Z,-1.22
2022-12-11T05:24:38.144Z,-1.26
2022-12-11T05:27:04.541Z,-1.24
2022-12-11T05:29:30.958Z,-1.29
2022-12-11T05:31:57.615Z,-1.28
2022-12-11T05:34:24.092Z,-1.32
2022-12-11T05:36:50.809Z,-1.24
2022-12-11T05:39:17.280Z,-1.24
2022-12-11T05:41:43.685Z,-1.24
2022-12-11T05:44:13.379Z,-1.27
2022-12-11T05:46:40.061Z,-1.35
2022-12-11T05:49:06.533Z,-1.28
2022-12-11T05:51:36.061Z,-1.28
2022-12-11T05:54:02.708Z,-1.27
2022-12-11T05:56:30.169Z,-1.27
2022-12-11T05:58:56.679Z,-1.26
2022-12-11T06:01:23.131Z,-1.33
2022-12-11T06:03:49.560Z,-1.28
2022-12-11T06:06:16.177Z,-1.34
2022-12-11T06:08:42.694Z,-1.35
2022-12-11T06:11:09.217Z,-1.37
2022-12-11T06:13:35.656Z,-1.38
2022-12-11T06:16:04.507Z,-1.37
2022-12-11T06:18:31.152Z,-1.39
2022-12-11T06:20:57.810Z,-1.46
2022-12-11T06:23:24.272Z,-1.42
2022-12-11T06:25:50.675Z,-1.43
2022-12-11T06:28:17.584Z,-1.40
2022-12-11T06:30:45.001Z,-1.45
2022-12-11T06:33:11.451Z,-1.45
2022-12-11T06:35:41.968Z,-1.42
2022-12-11T06:38:09.478Z,-1.42
2022-12-11T06:40:35.892Z,-1.51
2022-12-11T06:43:02.302Z,-1.55
2022-12-11T06:45:28.828Z,-1.57
2022-12-11T06:47:55.720Z,-1.58
2022-12-11T06:50:22.178Z,-1.57
2022-12-11T06:52:48.659Z,-1.54
2022-12-11T06:55:15.303Z,-1.47
2022-12-11T06:57:41.869Z,-1.47
2022-12-11T07:00:08.632Z,-1.49
2022-12-11T07:02:35.132Z,-1.49
2022-12-11T07:05:01.771Z,-1.51
2022-12-11T07:07:28.345Z,-1.57
2022-12-11T07:09:54.937Z,-1.59
2022-12-11T07:12:21.500Z,-1.54
2022-12-11T07:14:47.977Z,-1.55
2022-12-11T07:17:14.374Z,-1.55
2022-12-11T07:19:41.047Z,-1.58
2022-12-11T07:22:07.573Z,-1.56
2022-12-11T07:24:33.982Z,-1.54
2022-12-11T07:27:00.583Z,-1.53
2022-12-11T07:29:27.204Z,-1.52
2022-12-11T07:31:53.945Z,-1.46
2022-12-11T07:34:20.910Z,-1.46
2022-12-11T07:36:47.385Z,-1.48
2022-12-11T07:39:13.831Z,-1.45
2022-12-11T07:41:40.249Z,-1.48
2022-12-11T07:44:06.669Z,-1.50
2022-12-11T07:46:33.324Z,-1.48
2022-12-11T07:49:00.998Z,-1.52
2022-12-11T07:51:28.459Z,-1.50
2022-12-11T07:53:58.738Z,-1.45
2022-12-11T07:56:25.487Z,-1.51
2022-12-11T07:59:03.602Z,-1.51
2022-12-11T08:01:36.482Z,-1.52
2022-12-11T08:04:03.864Z,-1.46
2022-12-11T08:06:31.182Z,-1.51
2022-12-11T08:08:58.321Z,-1.55
2022-12-11T08:11:25.092Z,-1.55
2022-12-11T08:13:51.509Z,-1.58
2022-12-11T08:16:18.077Z,-1.58
2022-12-11T08:18:44.980Z,-1.49
2022-12-11T08:21:14.357Z,-1.48
2022-12-11T08:23:40.789Z,-1.48
2022-12-11T08:26:07.884Z,-1.52
2022-12-11T08:28:34.481Z,-1.53
2022-12-11T08:31:00.971Z,-1.57
2022-12-11T08:33:27.482Z,-1.59
2022-12-11T08:35:54.131Z,-1.61
2022-12-11T08:38:25.245Z,-1.61
2022-12-11T08:40:52.077Z,-1.68
2022-12-11T08:43:18.528Z,-1.68
2022-12-11T08:45:46.003Z,-1.53
2022-12-11T08:48:12.478Z,-1.64
2022-12-11T08:50:38.906Z,-1.69
2022-12-11T08:53:05.284Z,-1.77
2022-12-11T08:55:32.365Z,-1.76
2022-12-11T08:57:58.802Z,-1.82
2022-12-11T09:00:25.196Z,-1.80
2022-12-11T09:02:51.755Z,-1.80
2022-12-11T09:05:18.203Z,-1.80
2022-12-11T09:07:44.765Z,-1.76
2022-12-11T09:10:11.267Z,-1.76
2022-12-11T09:12:38.174Z,-1.81
2022-12-11T09:15:04.803Z,-1.79
2022-12-11T09:17:31.277Z,-1.80
2022-12-11T09:19:58.802Z,-1.82
2022-12-11T09:22:25.279Z,-1.83
2022-12-11T09:24:51.802Z,-1.81
2022-12-11T09:27:19.867Z,-1.81
2022-12-11T09:29:46.263Z,-1.80
2022-12-11T09:32:14.658Z,-1.74
2022-12-11T09:34:41.139Z,-1.72
2022-12-11T09:37:07.595Z,-1.68
2022-12-11T09:39:34.078Z,-1.69
2022-12-11T09:42:03.678Z,-1.72
2022-12-11T09:44:49.749Z,-1.68
2022-12-11T09:47:17.249Z,-1.68
2022-12-11T09:49:44.260Z,-1.72
2022-12-11T09:52:12.842Z,-1.70
2022-12-11T09:54:44.343Z,-1.73
2022-12-11T09:57:14.721Z,-1.75
2022-12-11T10:00:04.205Z,-1.72
2022-12-11T10:02:34.567Z,-1.78
2022-12-11T10:05:16.377Z,-1.80
2022-12-11T10:07:48.307Z,-1.79
2022-12-11T10:10:14.774Z,-1.83
2022-12-11T10:12:55.171Z,-1.86
2022-12-11T10:15:43.094Z,-1.95
2022-12-11T10:18:11.346Z,-1.98
2022-12-11T10:20:40.274Z,-1.99
2022-12-11T10:23:07.392Z,-2.02
2022-12-11T10:25:59.789Z,-1.99
2022-12-11T10:28:27.352Z,-2.08
2022-12-11T10:30:53.753Z,-2.09
2022-12-11T10:33:20.791Z,-2.07
2022-12-11T10:35:50.278Z,-2.09
2022-12-11T10:38:20.959Z,-2.12
2022-12-11T10:40:49.456Z,-2.08
2022-12-11T10:43:15.925Z,-2.09
2022-12-11T10:45:50.535Z,-2.06
2022-12-11T10:48:17.134Z,-2.07
2022-12-11T10:50:43.799Z,-1.99
2022-12-11T10:53:19.994Z,-2.00
2022-12-11T10:55:46.433Z,-1.94
2022-12-11T10:58:15.470Z,-1.97
2022-12-11T11:00:41.969Z,-2.01
2022-12-11T11:03:20.127Z,-2.01
2022-12-11T11:05:49.495Z,-2.00
2022-12-11T11:08:19.416Z,-2.05
2022-12-11T11:10:58.880Z,-2.06
2022-12-11T11:13:29.121Z,-2.08
2022-12-11T11:16:00.104Z,-2.01
2022-12-11T11:18:27.113Z,-2.00
2022-12-11T11:20:53.689Z,-1.91
2022-12-11T11:23:21.840Z,-1.86
2022-12-11T11:25:49.221Z,-1.83
2022-12-11T11:28:18.488Z,-1.80
2022-12-11T11:30:53.937Z,-1.74
2022-12-11T11:33:21.120Z,-1.82
2022-12-11T11:35:54.540Z,-1.83
2022-12-11T11:38:27.932Z,-1.84
2022-12-11T11:41:07.611Z,-1.82
2022-12-11T11:43:46.996Z,-1.80
2022-12-11T11:46:26.785Z,-1.84
2022-12-11T11:49:11.883Z,-1.86
2022-12-11T11:51:58.039Z,-1.91
2022-12-11T11:54:24.433Z,-1.97
2022-12-11T11:56:51.947Z,-2.02
2022-12-11T11:59:39.838Z,-2.04
2022-12-11T12:02:16.409Z,-2.07
2022-12-11T12:04:47.145Z,-2.00
2022-12-11T12:07:14.245Z,-2.02
2022-12-11T12:10:00.036Z,-2.05
2022-12-11T12:12:31.039Z,-1.98
2022-12-11T12:15:12.486Z,-1.94
2022-12-11T12:17:55.377Z,-1.91
2022-12-11T12:20:25.398Z,-1.95
2022-12-11T12:23:00.897Z,-1.96
2022-12-11T12:25:27.288Z,-1.97
2022-12-11T12:28:12.589Z,-1.98
2022-12-11T12:30:45.639Z,-1.93
2022-12-11T12:33:22.098Z,-1.93
2022-12-11T12:35:55.421Z,-1.91
2022-12-11T12:38:27.803Z,-1.88
2022-12-11T12:40:57.251Z,-1.82
2022-12-11T12:43:31.530Z,-1.82
2022-12-11T12:46:00.270Z,-1.81
2022-12-11T12:48:27.071Z,-1.82
2022-12-11T12:50:53.480Z,-1.86
2022-12-11T12:53:20.761Z,-1.87
2022-12-11T12:55:47.261Z,-1.88
2022-12-11T12:58:27.306Z,-1.85
2022-12-11T13:01:13.416Z,-1.82
2022-12-11T13:03:58.449Z,-1.84
2022-12-11T13:06:43.078Z,-1.78
2022-12-11T13:09:10.917Z,-1.86
2022-12-11T13:11:37.338Z,-1.89
2022-12-11T13:14:15.958Z,-1.92
2022-12-11T13:16:43.185Z,-1.93
2022-12-11T13:19:28.015Z,-1.94
2022-12-11T13:21:55.226Z,-1.84
2022-12-11T13:24:21.689Z,-1.84
2022-12-11T13:26:48.584Z,-1.89
2022-12-11T13:29:50.505Z,-1.86
2022-12-11T13:32:16.975Z,-1.82
2022-12-11T13:34:44.627Z,-1.84
2022-12-11T13:37:31.861Z,-1.83
2022-12-11T13:39:58.261Z,-1.86
2022-12-11T13:42:47.611Z,-1.91
2022-12-11T13:45:24.133Z,-1.86
2022-12-11T13:47:50.825Z,-1.86
2022-12-11T13:50:28.455Z,-1.90
2022-12-11T13:53:01.421Z,-1.94
2022-12-11T13:55:30.076Z,-1.95
2022-12-11T13:57:56.783Z,-1.99
2022-12-11T14:00:24.100Z,-2.02
2022-12-11T14:02:50.615Z,-2.01
2022-12-11T14:05:17.068Z,-2.04
2022-12-11T14:07:47.548Z,-2.05
2022-12-11T14:10:18.370Z,-2.10
2022-12-11T14:12:50.762Z,-2.14
2022-12-11T14:15:17.166Z,-2.15
2022-12-11T14:17:47.178Z,-2.21
2022-12-11T14:20:18.883Z,-2.27
2022-12-11T14:22:45.377Z,-2.33
2022-12-11T14:25:22.138Z,-2.45
2022-12-11T14:27:49.352Z,-2.54
2022-12-11T14:30:22.208Z,-2.55
2022-12-11T14:32:48.648Z,-2.58
2022-12-11T14:35:21.554Z,-2.63
2022-12-11T14:37:48.277Z,-2.63
2022-12-11T14:40:16.347Z,-2.65
2022-12-11T14:42:44.371Z,-2.66
2022-12-11T14:45:20.309Z,-2.60
2022-12-11T14:47:46.759Z,-2.64
2022-12-11T14:50:19.157Z,-2.74
2022-12-11T14:53:15.143Z,-2.82
2022-12-11T14:55:41.582Z,-2.89
2022-12-11T14:58:18.133Z,-2.91
2022-12-11T15:00:44.542Z,-2.98
2022-12-11T15:03:17.613Z,-3.02
2022-12-11T15:05:54.079Z,-3.02
2022-12-11T15:08:40.745Z,-3.05
2022-12-11T15:11:08.405Z,-3.03
2022-12-11T15:13:35.482Z,-3.02
2022-12-11T15:16:01.951Z,-3.04
2022-12-11T15:18:33.005Z,-3.02
2022-12-11T15:21:07.361Z,-3.04
2022-12-11T15:23:34.559Z,-3.06
2022-12-11T15:26:01.115Z,-3.07
2022-12-11T15:28:29.661Z,-3.04
2022-12-11T15:30:57.172Z,-3.02
2022-12-11T15:33:23.666Z,-3.00
2022-12-11T15:35:54.073Z,-2.97
2022-12-11T15:38:31.225Z,-2.96
2022-12-11T15:40:57.794Z,-2.97
2022-12-11T15:43:24.193Z,-2.96
2022-12-11T15:45:50.725Z,-2.92
2022-12-11T15:48:17.158Z,-2.88
2022-12-11T15:50:43.572Z,-2.86
2022-12-11T15:53:10.029Z,-2.84
2022-12-11T15:55:36.428Z,-2.85
2022-12-11T15:58:03.689Z,-2.82
2022-12-11T16:00:30.666Z,-2.79
2022-12-11T16:02:57.567Z,-2.79
2022-12-11T16:05:24.328Z,-2.80
2022-12-11T16:07:59.746Z,-2.79
2022-12-11T16:10:26.886Z,-2.81
2022-12-11T16:12:53.374Z,-2.84
2022-12-11T16:15:23.509Z,-2.87
2022-12-11T16:17:50.617Z,-2.91
2022-12-11T16:20:17.064Z,-2.93
2022-12-11T16:22:43.507Z,-2.96
2022-12-11T16:25:10.328Z,-2.95
2022-12-11T16:27:36.932Z,-2.99
2022-12-11T16:30:03.688Z,-3.02
2022-12-11T16:32:30.156Z,-3.04
2022-12-11T16:34:58.061Z,-3.03
2022-12-11T16:37:24.508Z,-3.02
2022-12-11T16:39:50.949Z,-2.98
2022-12-11T16:42:17.421Z,-2.96
2022-12-11T16:44:44.314Z,-2.95
2022-12-11T16:47:10.909Z,-2.97
2022-12-11T16:49:37.333Z,-2.94
2022-12-11T16:52:03.827Z,-2.91
2022-12-11T16:54:30.306Z,-2.87
2022-12-11T16:56:56.773Z,-2.83
2022-12-11T16:59:23.238Z,-2.80
2022-12-11T17:01:50.590Z,-2.78
2022-12-11T17:04:17.152Z,-2.78
2022-12-11T17:06:43.647Z,-2.76
2022-12-11T17:09:10.072Z,-2.74
2022-12-11T17:11:36.557Z,-2.72
2022-12-11T17:14:03.014Z,-2.70
2022-12-11T17:16:30.508Z,-2.68
2022-12-11T17:18:57.441Z,-2.67
2022-12-11T17:21:23.937Z,-2.66
2022-12-11T17:23:50.761Z,-2.66
2022-12-11T17:26:17.474Z,-2.66
2022-12-11T17:28:44.046Z,-2.64
2022-12-11T17:31:12.888Z,-2.65
2022-12-11T17:33:39.655Z,-2.65
2022-12-11T17:36:06.588Z,-2.68
2022-12-11T17:38:33.044Z,-2.69
2022-12-11T17:40:59.469Z,-2.73
2022-12-11T17:43:25.987Z,-2.75
2022-12-11T17:45:55.447Z,-2.76
2022-12-11T17:48:25.009Z,-2.76
2022-12-11T17:50:51.667Z,-2.76
2022-12-11T17:53:18.302Z,-2.73
2022-12-11T17:55:44.856Z,-2.73
2022-12-11T17:58:15.430Z,-2.71
2022-12-11T18:00:42.170Z,-2.67
2022-12-11T18:03:08.566Z,-2.63
2022-12-11T18:05:35.221Z,-2.60
2022-12-11T18:08:01.752Z,-2.57
2022-12-11T18:10:28.199Z,-2.55
2022-12-11T18:12:54.760Z,-2.54
2022-12-11T18:15:21.317Z,-2.52
2022-12-11T18:17:48.537Z,-2.49
2022-12-11T18:20:15.974Z,-2.50
2022-12-11T18:22:42.684Z,-2.47
2022-12-11T18:25:23.747Z,-2.44
2022-12-11T18:27:50.722Z,-2.44
2022-12-11T18:30:17.248Z,-2.41
2022-12-11T18:32:43.906Z,-2.41
2022-12-11T18:35:10.770Z,-2.37
2022-12-11T18:37:37.670Z,-2.35
2022-12-11T18:40:04.520Z,-2.33
2022-12-11T18:42:33.430Z,-2.32
2022-12-11T18:45:00.276Z,-2.35
2022-12-11T18:47:26.752Z,-2.37
2022-12-11T18:49:53.262Z,-2.39
2022-12-11T18:52:19.783Z,-2.43
2022-12-11T18:54:46.301Z,-2.45
2022-12-11T18:57:12.762Z,-2.44
2022-12-11T18:59:39.172Z,-2.43
2022-12-11T19:02:05.717Z,-2.43
2022-12-11T19:04:32.363Z,-2.43
2022-12-11T19:06:59.907Z,-2.43
2022-12-11T19:09:26.372Z,-2.45
2022-12-11T19:11:53.616Z,-2.48
2022-12-11T19:14:20.049Z,-2.51
2022-12-11T19:16:46.699Z,-2.53
2022-12-11T19:19:20.491Z,-2.55
2022-12-11T19:21:47.165Z,-2.60
2022-12-11T19:24:15.207Z,-2.62
2022-12-11T19:26:42.239Z,-2.62
2022-12-11T19:29:09.863Z,-2.63
2022-12-11T19:31:36.458Z,-2.62
2022-12-11T19:34:03.084Z,-2.60
2022-12-11T19:36:29.680Z,-2.56
2022-12-11T19:39:01.206Z,-2.54
2022-12-11T19:41:28.569Z,-2.51
2022-12-11T19:43:56.157Z,-2.48
2022-12-11T19:46:22.872Z,-2.48
2022-12-11T19:48:49.616Z,-2.48
2022-12-11T19:51:20.356Z,-2.47
2022-12-11T19:53:46.891Z,-2.46
2022-12-11T19:56:13.476Z,-2.44
2022-12-11T19:58:39.942Z,-2.42
2022-12-11T20:01:07.452Z,-2.41
2022-12-11T20:03:34.234Z,-2.38
2022-12-11T20:06:01.470Z,-2.37
2022-12-11T20:08:44.250Z,-2.37
2022-12-11T20:11:17.303Z,-2.35
2022-12-11T20:13:45.995Z,-2.34
2022-12-11T20:16:13.065Z,-2.36
2022-12-11T20:18:39.568Z,-2.39
2022-12-11T20:21:07.084Z,-2.41
2022-12-11T20:23:33.745Z,-2.39
2022-12-11T20:26:00.265Z,-2.39
2022-12-11T20:28:26.901Z,-2.41
2022-12-11T20:30:53.400Z,-2.45
2022-12-11T20:33:19.956Z,-2.46
2022-12-11T20:35:46.452Z,-2.47
2022-12-11T20:38:12.879Z,-2.50
2022-12-11T20:40:39.375Z,-2.53
2022-12-11T20:43:05.817Z,-2.55
2022-12-11T20:45:32.325Z,-2.56
2022-12-11T20:47:58.809Z,-2.57
2022-12-11T20:50:25.227Z,-2.55
2022-12-11T20:52:54.712Z,-2.54
2022-12-11T20:55:21.241Z,-2.52
2022-12-11T20:57:47.667Z,-2.52
2022-12-11T21:00:14.769Z,-2.49
2022-12-11T21:02:41.269Z,-2.45
2022-12-11T21:05:08.016Z,-2.43
2022-12-11T21:07:35.569Z,-2.42
2022-12-11T21:10:02.025Z,-2.42
2022-12-11T21:12:31.727Z,-2.42
2022-12-11T21:14:58.386Z,-2.46
2022-12-11T21:17:24.810Z,-2.48
2022-12-11T21:19:51.327Z,-2.47
2022-12-11T21:22:17.749Z,-2.47
2022-12-11T21:24:44.263Z,-2.47
2022-12-11T21:27:11.602Z,-2.48
2022-12-11T21:29:38.196Z,-2.48
2022-12-11T21:32:04.877Z,-2.47
2022-12-11T21:34:31.451Z,-2.47
2022-12-11T21:36:57.933Z,-2.50
2022-12-11T21:39:24.717Z,-2.50
2022-12-11T21:41:51.206Z,-2.51
2022-12-11T21:47:04.422Z,-2.51
2022-12-11T21:49:30.902Z,-2.50
2022-12-11T21:51:57.372Z,-2.49
2022-12-11T21:54:23.985Z,-2.49
2022-12-11T21:56:50.383Z,-2.49
2022-12-11T21:59:16.982Z,-2.50
2022-12-11T22:01:46.026Z,-2.48
2022-12-11T22:04:13.177Z,-2.49
2022-12-11T22:06:42.197Z,-2.51
2022-12-11T22:09:08.830Z,-2.53
2022-12-11T22:11:35.480Z,-2.46
2022-12-11T22:14:02.244Z,-2.46
2022-12-11T22:16:29.462Z,-2.46
2022-12-11T22:18:55.942Z,-2.56
2022-12-11T22:21:22.451Z,-2.62
2022-12-11T22:23:48.954Z,-2.67
2022-12-11T22:26:16.581Z,-2.70
2022-12-11T22:28:42.990Z,-2.70
2022-12-11T22:31:12.849Z,-2.79
2022-12-11T22:33:39.419Z,-2.80
2022-12-11T22:36:06.605Z,-2.80
2022-12-11T22:38:33.593Z,-2.79
2022-12-11T22:41:00.077Z,-2.77
2022-12-11T22:43:26.557Z,-2.72
2022-12-11T22:45:53.273Z,-2.71
2022-12-11T22:48:19.818Z,-2.73
2022-12-11T22:50:46.223Z,-2.75
2022-12-11T22:53:12.815Z,-2.77
2022-12-11T22:55:39.947Z,-2.80
2022-12-11T22:58:06.478Z,-2.80
2022-12-11T23:00:32.900Z,-2.82
2022-12-11T23:02:59.410Z,-2.84
2022-12-11T23:05:26.049Z,-2.84
2022-12-11T23:07:52.574Z,-2.83
2022-12-11T23:10:19.089Z,-2.90
2022-12-11T23:12:45.496Z,-2.91
2022-12-11T23:15:12.299Z,-2.93
2022-12-11T23:17:39.417Z,-2.94
2022-12-11T23:20:06.207Z,-2.92
2022-12-11T23:22:32.959Z,-2.93
2022-12-11T23:24:59.411Z,-2.91
2022-12-11T23:27:25.902Z,-2.92
2022-12-11T23:29:52.353Z,-2.95
2022-12-11T23:32:19.014Z,-2.98
2022-12-11T23:34:45.430Z,-2.99
2022-12-11T23:37:11.959Z,-3.01
2022-12-11T23:39:38.478Z,-3.07
2022-12-11T23:42:05.066Z,-3.10
2022-12-11T23:44:31.531Z,-3.08
2022-12-11T23:46:57.968Z,-3.06
2022-12-11T23:49:24.416Z,-3.08
2022-12-11T23:51:50.992Z,-3.07
2022-12-11T23:54:17.460Z,-3.05
2022-12-11T23:56:43.877Z,-3.06
2022-12-11T23:59:13.431Z,-3.00
